Time;durP1;ratioP1;P1;durP2;ratioP2;P2;SDS_P1;SDS_P2;PMS_P1;PMS_P2;Temp;Humidity;BMP_temperature;BMP_pressure;BME280_temperature;BME280_humidity;BME280_pressure;Samples;Min_cycle;Max_cycle;Signal;HPM_P1;HPM_P2
2023/08/05 00:00:01;;;;;;;51.75;48.35;;;15.10;99.90;;;;;;5030234;28;20086;-82
2023/08/05 00:02:26;;;;;;;56.50;52.72;;;15.00;99.90;;;;;;5031445;28;20081;-82
2023/08/05 00:04:53;;;;;;;51.65;48.53;;;15.00;99.90;;;;;;5030243;28;20085;-82
2023/08/05 00:07:19;;;;;;;47.15;43.80;;;15.00;99.90;;;;;;5035332;28;20121;-82
2023/08/05 00:09:44;;;;;;;45.47;42.53;;;15.00;99.90;;;;;;5033931;28;20128;-82
2023/08/05 00:12:10;;;;;;;50.60;47.45;;;14.90;99.90;;;;;;5035206;28;20037;-82
2023/08/05 00:14:36;;;;;;;45.35;42.30;;;15.00;99.90;;;;;;5034032;28;20052;-82
2023/08/05 00:17:02;;;;;;;54.38;50.80;;;14.90;99.90;;;;;;5033834;28;20042;-81
2023/08/05 00:19:27;;;;;;;55.63;52.33;;;14.90;99.90;;;;;;5033767;28;20136;-82
2023/08/05 00:21:53;;;;;;;50.53;47.13;;;14.90;99.90;;;;;;5017319;28;20511;-82
2023/08/05 00:24:18;;;;;;;45.75;42.80;;;14.90;99.90;;;;;;5017192;28;20118;-82
2023/08/05 00:26:44;;;;;;;50.97;47.50;;;14.90;99.90;;;;;;5033649;28;20048;-82
2023/08/05 00:29:10;;;;;;;51.38;48.25;;;14.90;99.90;;;;;;5033965;28;20127;-82
2023/08/05 00:31:35;;;;;;;48.55;45.50;;;14.80;99.90;;;;;;5033693;28;20064;-82
2023/08/05 00:34:01;;;;;;;48.42;45.47;;;14.90;99.90;;;;;;5033640;28;20033;-82
2023/08/05 00:36:27;;;;;;;45.78;42.72;;;14.90;99.90;;;;;;5034949;28;20037;-82
2023/08/05 00:38:52;;;;;;;53.58;50.22;;;15.20;99.90;;;;;;5033242;28;20499;-82
2023/08/05 00:41:18;;;;;;;56.38;52.92;;;15.00;99.90;;;;;;5034635;28;20479;-81
2023/08/05 00:43:44;;;;;;;52.35;48.95;;;15.00;99.90;;;;;;5033738;28;20045;-82
2023/08/05 00:46:11;;;;;;;59.20;55.40;;;15.00;99.90;;;;;;5033552;28;20033;-82
2023/08/05 00:48:37;;;;;;;52.25;49.05;;;14.90;99.90;;;;;;5033560;28;20041;-81
2023/08/05 00:51:05;;;;;;;56.47;52.80;;;14.80;99.90;;;;;;5033488;28;20385;-82
2023/08/05 00:53:34;;;;;;;57.75;54.25;;;14.70;99.90;;;;;;5034248;28;20086;-82
2023/08/05 00:56:00;;;;;;;56.88;53.33;;;14.80;99.90;;;;;;5033487;28;20041;-81
2023/08/05 00:58:26;;;;;;;52.00;48.70;;;14.80;99.90;;;;;;5033758;28;20447;-81
2023/08/05 01:00:52;;;;;;;58.42;54.83;;;14.70;99.90;;;;;;5034703;28;20049;-82
2023/08/05 01:03:18;;;;;;;57.88;54.13;;;14.70;99.90;;;;;;5033334;28;20041;-82
2023/08/05 01:05:45;;;;;;;50.40;47.05;;;14.70;99.90;;;;;;5033139;28;20416;-82
2023/08/05 01:08:12;;;;;;;50.75;47.40;;;14.80;99.90;;;;;;5032475;28;20037;-81
2023/08/05 01:10:39;;;;;;;44.88;42.03;;;14.80;99.90;;;;;;5034540;28;20112;-81
2023/08/05 01:13:04;;;;;;;57.75;53.65;;;14.80;99.90;;;;;;5033047;28;20104;-82
2023/08/05 01:15:30;;;;;;;53.90;50.30;;;14.80;99.90;;;;;;5033199;28;20507;-82
2023/08/05 01:17:57;;;;;;;50.22;46.17;;;14.80;99.90;;;;;;5032770;28;20054;-82
2023/08/05 01:20:37;;;;;;;66.50;62.22;;;14.80;99.90;;;;;;5032698;28;20099;-82
2023/08/05 01:23:11;;;;;;;63.92;59.72;;;14.70;99.90;;;;;;5033651;28;20420;-82
2023/08/05 01:25:39;;;;;;;51.15;47.55;;;14.60;99.90;;;;;;5032783;28;20099;-81
2023/08/05 01:28:06;;;;;;;52.33;48.40;;;14.50;99.90;;;;;;5033946;28;20060;-82
2023/08/05 01:30:32;;;;;;;53.25;49.63;;;14.40;99.90;;;;;;5034087;28;20064;-82
2023/08/05 01:33:01;;;;;;;66.93;62.55;;;14.30;99.90;;;;;;5033771;28;20038;-82
2023/08/05 01:35:27;;;;;;;55.95;52.20;;;14.30;99.90;;;;;;5033219;28;20033;-82
2023/08/05 01:37:52;;;;;;;49.72;46.20;;;14.10;99.90;;;;;;5033858;28;20053;-82
2023/08/05 01:40:18;;;;;;;40.17;37.35;;;14.00;99.90;;;;;;5032336;28;20049;-81
2023/08/05 01:42:44;;;;;;;42.63;39.67;;;14.10;99.90;;;;;;5032412;28;20045;-82
2023/08/05 01:45:09;;;;;;;54.17;50.47;;;14.10;99.90;;;;;;5033740;28;20037;-82
2023/08/05 01:47:35;;;;;;;47.95;44.83;;;14.00;99.90;;;;;;5015916;28;20037;-81
2023/08/05 01:50:01;;;;;;;46.60;43.60;;;14.00;99.90;;;;;;5031725;28;20065;-82
2023/08/05 01:52:27;;;;;;;54.33;50.78;;;14.00;99.90;;;;;;5032212;28;20491;-82
2023/08/05 01:54:52;;;;;;;48.33;44.88;;;14.00;99.90;;;;;;5032170;28;20381;-82
2023/08/05 01:57:18;;;;;;;46.22;43.03;;;13.90;99.90;;;;;;5032199;28;20042;-81
2023/08/05 01:59:43;;;;;;;47.28;43.95;;;13.90;99.90;;;;;;5032244;28;20059;-82
2023/08/05 02:02:09;;;;;;;52.55;48.92;;;13.90;99.90;;;;;;5032073;28;20033;-81
2023/08/05 02:04:35;;;;;;;50.42;47.05;;;13.90;99.90;;;;;;5032736;28;20052;-82
2023/08/05 02:07:00;;;;;;;52.97;48.83;;;14.00;99.90;;;;;;5033271;28;20045;-82
2023/08/05 02:09:26;;;;;;;50.97;47.40;;;13.90;99.90;;;;;;5015440;28;20121;-81
2023/08/05 02:11:52;;;;;;;44.85;42.03;;;13.90;99.90;;;;;;5031814;28;20041;-82
2023/08/05 02:14:17;;;;;;;49.35;46.08;;;13.80;99.90;;;;;;5031798;28;20041;-82
2023/08/05 02:16:43;;;;;;;36.63;33.92;;;13.80;99.90;;;;;;5031774;28;20120;-82
2023/08/05 02:19:09;;;;;;;38.92;35.65;;;13.70;99.90;;;;;;5014421;28;20525;-82
2023/08/05 02:21:34;;;;;;;44.70;41.65;;;13.60;99.90;;;;;;5032907;28;20049;-82
2023/08/05 02:24:00;;;;;;;41.08;37.78;;;13.60;99.90;;;;;;5033119;28;20065;-82
2023/08/05 02:26:26;;;;;;;43.53;40.45;;;13.50;99.90;;;;;;5015202;28;20124;-81
2023/08/05 02:28:52;;;;;;;35.30;32.67;;;13.40;99.90;;;;;;5031392;28;20396;-81
2023/08/05 02:31:18;;;;;;;41.53;38.47;;;13.30;99.90;;;;;;5031626;28;20037;-82
2023/08/05 02:33:43;;;;;;;37.90;35.20;;;13.30;99.90;;;;;;5032263;28;20049;-82
2023/08/05 02:36:09;;;;;;;36.33;33.78;;;13.20;99.90;;;;;;5032846;28;20045;-82
2023/08/05 02:38:35;;;;;;;33.72;30.92;;;13.10;99.90;;;;;;5031429;28;20049;-81
2023/08/05 02:41:05;;;;;;;35.83;33.20;;;13.10;99.90;;;;;;5032770;28;20086;-82
2023/08/05 02:43:31;;;;;;;38.28;35.58;;;13.10;99.90;;;;;;5032621;28;20118;-82
2023/08/05 02:45:57;;;;;;;38.55;35.63;;;13.00;99.90;;;;;;5031471;28;20096;-82
2023/08/05 02:48:26;;;;;;;61.15;57.22;;;12.90;99.90;;;;;;5031845;28;20083;-82
2023/08/05 02:50:53;;;;;;;47.83;44.40;;;12.90;99.90;;;;;;5031166;28;20041;-82
2023/08/05 02:53:19;;;;;;;53.25;49.63;;;12.90;99.90;;;;;;5032492;28;20064;-82
2023/08/05 02:55:44;;;;;;;49.72;46.42;;;12.80;99.90;;;;;;5031030;28;20173;-82
2023/08/05 02:58:10;;;;;;;51.42;47.90;;;12.80;99.90;;;;;;5031020;28;20072;-81
2023/08/05 03:00:36;;;;;;;68.45;63.00;;;12.70;99.90;;;;;;5031226;28;20127;-82
2023/08/05 03:03:02;;;;;;;104.28;97.30;;;12.60;99.90;;;;;;5031532;28;20124;-81
2023/08/05 03:05:28;;;;;;;77.05;72.10;;;12.70;99.90;;;;;;5032212;28;20029;-82
2023/08/05 03:07:55;;;;;;;71.75;66.95;;;12.70;99.90;;;;;;5030726;28;20061;-82
2023/08/05 03:10:20;;;;;;;66.43;62.10;;;12.60;99.90;;;;;;5032075;28;20128;-82
2023/08/05 03:12:46;;;;;;;75.28;69.93;;;12.90;99.90;;;;;;5031977;28;20472;-82
2023/08/05 03:15:12;;;;;;;91.53;85.63;;;12.60;99.90;;;;;;5014474;28;20033;-82
2023/08/05 03:17:37;;;;;;;83.15;77.47;;;12.50;99.90;;;;;;5031386;28;20045;-82
2023/08/05 03:20:06;;;;;;;97.82;91.15;;;12.40;99.90;;;;;;5031907;28;20397;-82
2023/08/05 03:22:32;;;;;;;73.53;68.90;;;12.40;99.90;;;;;;5031800;28;20373;-82
2023/08/05 03:24:59;;;;;;;78.30;73.25;;;12.50;99.90;;;;;;5030655;28;20099;-81
2023/08/05 03:27:25;;;;;;;73.38;68.60;;;12.30;99.90;;;;;;5031734;28;20087;-82
2023/08/05 03:29:51;;;;;;;76.80;71.50;;;12.30;99.90;;;;;;5031770;28;20443;-82
2023/08/05 03:32:16;;;;;;;120.38;112.78;;;12.30;99.90;;;;;;5031537;28;20033;-81
2023/08/05 03:34:42;;;;;;;89.50;83.72;;;12.30;99.90;;;;;;5014004;28;20041;-82
2023/08/05 03:37:08;;;;;;;130.18;121.88;;;12.30;99.90;;;;;;5030296;28;20060;-81
2023/08/05 03:39:33;;;;;;;110.57;103.60;;;12.20;99.90;;;;;;5029672;28;20037;-82
2023/08/05 03:41:59;;;;;;;106.18;99.65;;;12.30;99.90;;;;;;5030243;28;20049;-82
2023/08/05 03:44:25;;;;;;;126.65;118.57;;;12.30;99.90;;;;;;5030367;28;20057;-81
2023/08/05 03:46:50;;;;;;;118.50;111.03;;;12.30;99.90;;;;;;5029981;28;20040;-82
2023/08/05 03:49:16;;;;;;;154.18;143.82;;;12.40;99.90;;;;;;5031780;28;20134;-81
2023/08/05 03:51:41;;;;;;;139.23;130.18;;;12.40;99.90;;;;;;5030235;28;20404;-81
2023/08/05 03:54:07;;;;;;;155.95;145.55;;;12.50;99.90;;;;;;5013763;28;20120;-82
2023/08/05 03:56:33;;;;;;;128.73;120.45;;;12.60;99.90;;;;;;5013721;28;20065;-81
2023/08/05 03:58:59;;;;;;;99.65;93.15;;;12.70;99.90;;;;;;5030191;28;20041;-82
2023/08/05 04:01:26;;;;;;;117.97;109.72;;;12.80;99.90;;;;;;5029653;28;20039;-82
2023/08/05 04:03:52;;;;;;;124.47;116.43;;;12.90;99.90;;;;;;5030259;28;20095;-82
2023/08/05 04:06:21;;;;;;;126.00;117.65;;;12.90;99.90;;;;;;5031555;28;20044;-81
2023/08/05 04:08:48;;;;;;;103.10;96.15;;;13.00;99.90;;;;;;5030361;28;20111;-82
2023/08/05 04:11:14;;;;;;;114.68;107.00;;;13.00;99.90;;;;;;5031481;28;20403;-82
2023/08/05 04:13:40;;;;;;;93.35;87.20;;;13.10;99.90;;;;;;5030042;28;20045;-82
2023/08/05 04:16:08;;;;;;;81.75;76.05;;;13.10;99.90;;;;;;5013011;28;20041;-82
2023/08/05 04:18:36;;;;;;;55.03;51.42;;;13.10;99.90;;;;;;5029862;28;20107;-82
2023/08/05 04:21:08;;;;;;;66.70;61.95;;;13.70;99.90;;;;;;5030019;28;20053;-82
2023/08/05 04:23:34;;;;;;;44.92;41.35;;;13.20;99.90;;;;;;5031402;28;20045;-82
2023/08/05 04:26:01;;;;;;;38.15;35.35;;;13.20;99.90;;;;;;5031415;28;20446;-82
2023/08/05 04:28:27;;;;;;;50.72;47.15;;;13.30;99.90;;;;;;5031058;28;20404;-82
2023/08/05 04:30:53;;;;;;;46.33;42.83;;;13.30;99.90;;;;;;5029677;28;20049;-82
2023/08/05 04:33:19;;;;;;;60.35;56.33;;;13.30;99.90;;;;;;5031227;28;20038;-82
2023/08/05 04:35:49;;;;;;;57.53;53.45;;;13.40;99.90;;;;;;5031086;28;20042;-82
2023/08/05 04:38:15;;;;;;;38.13;35.45;;;13.40;99.90;;;;;;5031124;28;20045;-82
2023/08/05 04:40:41;;;;;;;43.67;40.60;;;13.40;99.90;;;;;;5030938;28;20037;-82
2023/08/05 04:43:07;;;;;;;37.45;34.70;;;13.40;99.90;;;;;;5029851;28;20045;-82
2023/08/05 04:45:34;;;;;;;40.75;37.70;;;13.50;99.90;;;;;;5030892;28;20046;-82
2023/08/05 04:48:00;;;;;;;47.95;44.53;;;13.60;99.90;;;;;;5031045;28;20042;-82
2023/08/05 04:50:26;;;;;;;31.50;29.10;;;13.60;99.90;;;;;;5029732;28;20040;-81
2023/08/05 04:52:51;;;;;;;38.55;35.75;;;13.60;99.90;;;;;;5032874;28;20392;-82
2023/08/05 04:55:17;;;;;;;30.50;28.23;;;13.60;99.90;;;;;;5033234;28;20084;-82
2023/08/05 04:57:44;;;;;;;35.33;32.70;;;13.70;99.90;;;;;;5033281;28;20041;-82
2023/08/05 05:00:10;;;;;;;28.83;26.63;;;13.70;99.90;;;;;;5034383;28;20102;-82
2023/08/05 05:02:38;;;;;;;32.53;30.27;;;13.80;99.90;;;;;;5033209;28;20052;-82
2023/08/05 05:05:04;;;;;;;34.15;31.33;;;13.80;99.90;;;;;;5033450;28;20042;-82
2023/08/05 05:07:30;;;;;;;32.22;29.95;;;13.90;99.90;;;;;;5032801;28;20037;-82
2023/08/05 05:09:56;;;;;;;29.40;27.17;;;14.00;99.90;;;;;;5032971;28;20045;-81
2023/08/05 05:12:21;;;;;;;34.00;31.52;;;14.00;99.90;;;;;;5032914;28;20037;-82
2023/08/05 05:14:47;;;;;;;36.33;33.47;;;14.10;99.90;;;;;;5032573;28;20038;-82
2023/08/05 05:17:16;;;;;;;32.80;30.38;;;14.20;99.90;;;;;;5034438;28;20033;-81
2023/08/05 05:19:43;;;;;;;37.33;34.47;;;14.30;99.90;;;;;;5032690;28;20203;-82
2023/08/05 05:22:09;;;;;;;37.50;34.95;;;14.50;99.90;;;;;;5032778;28;20045;-82
2023/08/05 05:24:35;;;;;;;41.53;38.70;;;14.40;99.90;;;;;;5033892;28;20052;-82
2023/08/05 05:27:01;;;;;;;42.28;38.92;;;14.50;99.90;;;;;;5032588;28;20045;-82
2023/08/05 05:29:30;;;;;;;37.55;34.95;;;14.60;99.90;;;;;;5034092;28;20045;-82
2023/08/05 05:31:55;;;;;;;34.78;31.88;;;14.70;99.90;;;;;;5033980;28;20033;-82
2023/08/05 05:34:21;;;;;;;53.00;49.67;;;14.80;99.90;;;;;;5033879;28;20476;-82
2023/08/05 05:36:47;;;;;;;43.92;40.83;;;14.90;99.90;;;;;;5032552;28;20049;-82
2023/08/05 05:39:12;;;;;;;32.28;29.98;;;15.00;99.90;;;;;;5032405;28;20049;-82
2023/08/05 05:41:38;;;;;;;34.30;31.75;;;15.10;99.90;;;;;;5032411;28;20041;-82
2023/08/05 05:44:04;;;;;;;37.53;34.88;;;15.30;99.90;;;;;;5033518;28;20037;-82
2023/08/05 05:46:33;;;;;;;42.15;39.47;;;15.90;99.90;;;;;;5033709;28;20046;-82
2023/08/05 05:48:59;;;;;;;39.95;37.33;;;16.80;99.90;;;;;;5032628;28;20033;-82
2023/08/05 05:51:25;;;;;;;14.55;13.05;;;18.10;99.90;;;;;;5032454;28;20037;-82
2023/08/05 05:53:55;;;;;;;9.80;8.57;;;19.50;99.90;;;;;;5033467;28;20103;-82
2023/08/05 05:56:21;;;;;;;10.95;9.13;;;20.10;99.90;;;;;;5031917;28;20042;-83
2023/08/05 05:58:46;;;;;;;10.77;9.77;;;20.00;99.90;;;;;;5033657;28;20045;-83
2023/08/05 06:01:13;;;;;;;10.30;9.43;;;19.60;99.90;;;;;;5033615;28;20033;-83
2023/08/05 06:03:40;;;;;;;10.88;9.05;;;19.30;99.90;;;;;;5032629;28;20498;-82
2023/08/05 06:06:06;;;;;;;12.30;10.52;;;18.90;99.90;;;;;;5032463;28;20519;-82
2023/08/05 06:08:33;;;;;;;25.20;23.40;;;18.50;99.90;;;;;;5033456;28;20124;-82
2023/08/05 06:11:07;;;;;;;11.80;9.93;;;18.40;99.90;;;;;;5031565;28;20068;-82
2023/08/05 06:13:32;;;;;;;14.50;13.27;;;18.60;99.90;;;;;;5033483;28;20536;-82
2023/08/05 06:15:58;;;;;;;10.57;9.48;;;18.90;99.90;;;;;;5031932;28;20120;-82
2023/08/05 06:18:24;;;;;;;7.80;7.00;;;19.60;99.90;;;;;;5033116;28;20041;-83
2023/08/05 06:20:49;;;;;;;8.05;7.30;;;20.30;99.90;;;;;;5031681;28;20049;-83
2023/08/05 06:23:15;;;;;;;9.35;7.78;;;20.60;99.90;;;;;;5031904;28;20045;-83
2023/08/05 06:25:42;;;;;;;12.85;11.55;;;21.00;99.90;;;;;;5014766;28;20045;-82
2023/08/05 06:28:08;;;;;;;16.50;15.23;;;21.60;99.90;;;;;;5031866;28;20045;-83
2023/08/05 06:30:34;;;;;;;17.77;16.30;;;22.30;99.90;;;;;;5031833;28;20037;-83
2023/08/05 06:33:00;;;;;;;18.98;17.50;;;22.80;99.90;;;;;;5031695;28;20087;-82
2023/08/05 06:35:26;;;;;;;46.17;43.55;;;23.20;99.90;;;;;;5031474;28;20043;-82
2023/08/05 06:37:52;;;;;;;82.47;77.82;;;23.20;99.90;;;;;;5031676;28;20088;-82
2023/08/05 06:40:18;;;;;;;107.60;101.43;;;23.40;99.90;;;;;;5030927;28;20081;-82
2023/08/05 06:42:44;;;;;;;90.90;85.97;;;22.80;99.90;;;;;;5032653;28;20029;-82
2023/08/05 06:45:10;;;;;;;130.68;123.22;;;22.40;99.90;;;;;;5031766;28;20045;-82
2023/08/05 06:47:35;;;;;;;97.22;91.72;;;22.30;99.90;;;;;;5031507;28;20044;-83
2023/08/05 06:50:06;;;;;;;97.93;92.32;;;22.50;99.90;;;;;;5031420;28;20037;-82
2023/08/05 06:52:33;;;;;;;122.18;115.40;;;22.70;99.90;;;;;;5031593;28;20049;-82
2023/08/05 06:55:01;;;;;;;160.82;151.93;;;23.10;99.90;;;;;;5031095;28;20121;-82
2023/08/05 06:57:28;;;;;;;1329.80;999.90;;;23.90;99.90;;;;;;5032829;28;20072;-82
2023/08/05 06:59:54;;;;;;;1814.43;997.63;;;24.40;99.90;;;;;;5032047;28;20083;-82
2023/08/05 07:02:19;;;;;;;1999.90;961.78;;;23.90;99.90;;;;;;5031470;28;20461;-82
2023/08/05 07:04:45;;;;;;;1999.90;995.15;;;23.40;99.90;;;;;;5032835;28;20044;-82
2023/08/05 07:07:11;;;;;;;1983.95;980.25;;;22.60;99.90;;;;;;5031100;28;20045;-82
2023/08/05 07:09:37;;;;;;;1061.80;754.55;;;21.90;99.90;;;;;;5032101;28;20033;-82
2023/08/05 07:12:03;;;;;;;900.40;732.97;;;21.50;99.90;;;;;;5031492;28;20037;-82
2023/08/05 07:14:28;;;;;;;1371.10;876.45;;;21.20;99.90;;;;;;5031100;28;20037;-81
2023/08/05 07:16:54;;;;;;;1005.47;723.25;;;21.00;99.90;;;;;;5031023;28;20120;-82
2023/08/05 07:19:22;;;;;;;469.33;421.92;;;20.90;99.90;;;;;;5032061;28;20076;-82
2023/08/05 07:21:50;;;;;;;755.40;626.90;;;20.90;99.90;;;;;;5030968;28;20491;-82
2023/08/05 07:24:17;;;;;;;990.13;763.60;;;20.70;99.90;;;;;;5031654;28;20037;-82
2023/08/05 07:26:42;;;;;;;863.55;716.22;;;20.50;99.90;;;;;;5032079;28;20041;-83
2023/08/05 07:29:08;;;;;;;405.60;343.05;;;20.30;99.90;;;;;;5030760;28;20037;-82
2023/08/05 07:31:34;;;;;;;527.15;468.92;;;20.20;99.90;;;;;;5030795;28;20049;-82
2023/08/05 07:34:00;;;;;;;628.35;505.92;;;20.20;99.90;;;;;;5030619;28;20120;-82
2023/08/05 07:36:27;;;;;;;384.67;340.23;;;20.00;99.90;;;;;;5030424;28;20084;-81
2023/08/05 07:38:54;;;;;;;556.50;444.27;;;19.70;99.90;;;;;;5031292;28;20030;-81
2023/08/05 07:41:22;;;;;;;276.23;250.40;;;19.50;99.90;;;;;;5031934;28;20042;-82
2023/08/05 07:43:47;;;;;;;712.75;640.58;;;19.50;99.90;;;;;;5031705;28;20038;-82
2023/08/05 07:46:13;;;;;;;692.45;625.33;;;19.50;99.90;;;;;;5031636;28;20454;-82
2023/08/05 07:48:39;;;;;;;192.85;177.88;;;19.70;99.90;;;;;;5030253;28;20095;-82
2023/08/05 07:51:08;;;;;;;751.90;684.42;;;20.20;99.90;;;;;;5030388;28;20045;-82
2023/08/05 07:53:38;;;;;;;586.58;539.85;;;20.70;99.90;;;;;;5031230;28;20574;-83
2023/08/05 07:56:09;;;;;;;867.50;757.33;;;20.90;99.90;;;;;;5013950;28;20103;-82
2023/08/05 07:58:35;;;;;;;956.15;856.15;;;21.00;99.90;;;;;;5030421;28;20054;-82
2023/08/05 08:01:01;;;;;;;652.45;589.08;;;20.90;99.90;;;;;;5030499;28;20053;-82
2023/08/05 08:03:29;;;;;;;815.88;740.15;;;20.80;99.90;;;;;;5030311;28;20048;-82
2023/08/05 08:05:54;;;;;;;1201.40;954.80;;;20.90;99.90;;;;;;5031582;28;20465;-82
2023/08/05 08:08:21;;;;;;;1773.47;977.53;;;21.10;99.90;;;;;;5031062;28;20120;-82
2023/08/05 08:10:47;;;;;;;1232.68;976.50;;;21.60;99.90;;;;;;5031603;28;20112;-82
2023/08/05 08:13:12;;;;;;;1696.25;999.90;;;21.80;99.90;;;;;;5031456;28;20033;-83
2023/08/05 08:15:38;;;;;;;1999.90;999.90;;;22.20;99.90;;;;;;5031745;28;20506;-83
2023/08/05 08:18:04;;;;;;;1999.90;999.90;;;22.10;99.90;;;;;;5031466;28;20045;-82
2023/08/05 08:20:29;;;;;;;1431.18;966.92;;;21.90;99.90;;;;;;5030362;28;20399;-82
2023/08/05 08:22:55;;;;;;;1643.47;924.85;;;21.80;99.90;;;;;;5013304;28;20040;-82
2023/08/05 08:25:21;;;;;;;1379.57;914.03;;;21.60;99.90;;;;;;5031449;28;20043;-82
2023/08/05 08:27:46;;;;;;;1036.30;880.88;;;21.40;99.90;;;;;;5016431;28;20103;-82
2023/08/05 08:30:12;;;;;;;1248.20;950.72;;;21.50;99.90;;;;;;5034054;28;20041;-82
2023/08/05 08:32:39;;;;;;;1347.10;945.33;;;21.40;99.90;;;;;;5035036;28;20562;-82
2023/08/05 08:35:06;;;;;;;1632.10;961.83;;;21.30;99.90;;;;;;5035146;28;20053;-82
2023/08/05 08:37:32;;;;;;;682.17;553.58;;;21.20;99.90;;;;;;5033432;28;20092;-82
2023/08/05 08:39:57;;;;;;;1647.57;950.72;;;21.00;99.90;;;;;;5033692;28;20049;-82
2023/08/05 08:42:25;;;;;;;921.78;770.53;;;20.80;99.90;;;;;;5017160;28;20128;-82
2023/08/05 08:44:52;;;;;;;903.55;630.50;;;20.60;99.90;;;;;;5035286;28;20084;-82
2023/08/05 08:47:19;;;;;;;802.35;715.60;;;20.50;99.90;;;;;;5033537;28;20410;-82
2023/08/05 08:49:47;;;;;;;1115.82;833.95;;;20.60;99.90;;;;;;5034849;28;20037;-82
2023/08/05 08:52:17;;;;;;;1056.97;944.03;;;20.70;99.90;;;;;;5016499;28;20049;-82
2023/08/05 08:54:44;;;;;;;1049.78;656.50;;;20.90;99.90;;;;;;5034762;28;20400;-82
2023/08/05 08:57:13;;;;;;;1328.82;929.40;;;20.90;99.90;;;;;;5016682;28;20077;-81
2023/08/05 08:59:41;;;;;;;1357.47;888.30;;;21.10;99.90;;;;;;5034606;28;20042;-82
2023/08/05 09:02:23;;;;;;;1345.13;972.83;;;21.60;99.90;;;;;;5033203;28;20080;-82
2023/08/05 09:04:51;;;;;;;1999.90;999.90;;;22.20;99.90;;;;;;5033243;28;20045;-82
2023/08/05 09:07:17;;;;;;;1999.90;999.90;;;22.40;99.90;;;;;;5034227;28;20037;-82
2023/08/05 09:09:47;;;;;;;1999.90;997.00;;;22.40;99.90;;;;;;5034297;28;20098;-82
2023/08/05 09:12:14;;;;;;;1999.90;945.20;;;22.40;99.90;;;;;;5033100;28;20048;-82
2023/08/05 09:14:40;;;;;;;1999.90;990.40;;;22.30;99.90;;;;;;5033105;28;20049;-82
2023/08/05 09:17:06;;;;;;;1999.90;999.90;;;22.10;99.90;;;;;;5034545;28;20046;-82
2023/08/05 09:19:31;;;;;;;1999.90;986.42;;;22.30;99.90;;;;;;5032301;28;20072;-82
2023/08/05 09:22:01;;;;;;;1999.90;938.88;;;22.20;99.90;;;;;;5034106;28;20080;-82
2023/08/05 09:24:27;;;;;;;1999.90;999.90;;;22.50;99.90;;;;;;5034326;28;20132;-82
2023/08/05 09:26:57;;;;;;;1999.90;992.22;;;23.30;99.90;;;;;;5034023;28;20128;-82
2023/08/05 09:29:24;;;;;;;1999.90;609.95;;;24.00;99.90;;;;;;5034093;28;20037;-82
2023/08/05 09:32:11;;;;;;;1999.90;999.90;;;24.40;99.90;;;;;;5032770;28;20121;-83
2023/08/05 09:34:41;;;;;;;1999.90;627.10;;;25.00;99.90;;;;;;5015617;28;20050;-82
2023/08/05 09:37:07;;;;;;;1999.90;835.80;;;25.40;99.90;;;;;;5032110;28;20056;-82
2023/08/05 09:39:47;;;;;;;1999.90;560.55;;;25.70;99.90;;;;;;5032058;28;20045;-82
2023/08/05 09:42:24;;;;;;;1999.90;794.35;;;26.00;99.90;;;;;;5016300;28;20561;-82
2023/08/05 09:44:54;;;;;;;1999.90;999.90;;;26.10;99.90;;;;;;5034173;28;20471;-81
2023/08/05 09:47:24;;;;;;;1999.90;999.90;;;26.00;99.90;;;;;;5033143;28;20050;-82
2023/08/05 09:49:51;;;;;;;1999.90;999.90;;;25.10;99.50;;;;;;5032394;28;20045;-82
2023/08/05 09:52:18;;;;;;;1999.90;999.90;;;24.60;99.90;;;;;;5033767;28;20041;-82
2023/08/05 09:55:05;;;;;;;1999.90;999.90;;;24.20;99.10;;;;;;5033550;28;20041;-82
2023/08/05 09:57:31;;;;;;;1999.90;999.90;;;23.70;99.90;;;;;;5032437;28;20041;-81
2023/08/05 10:00:02;;;;;;;1999.90;999.90;;;23.20;99.90;;;;;;5033549;28;20432;-82
2023/08/05 10:02:30;;;;;;;1999.90;999.90;;;23.20;99.90;;;;;;5032219;28;20045;-82
2023/08/05 10:04:56;;;;;;;1999.90;999.90;;;23.10;99.90;;;;;;5032993;28;20041;-82
2023/08/05 10:07:27;;;;;;;1999.90;999.90;;;23.00;99.90;;;;;;5033138;28;20044;-82
2023/08/05 10:09:53;;;;;;;1999.90;999.90;;;22.70;99.90;;;;;;5031755;28;20052;-82
2023/08/05 10:12:24;;;;;;;1999.90;680.58;;;22.60;99.90;;;;;;5031702;28;20041;-82
2023/08/05 10:14:52;;;;;;;1911.20;464.95;;;22.50;99.90;;;;;;5031882;28;20072;-82
2023/08/05 10:17:18;;;;;;;1948.45;502.55;;;22.40;99.90;;;;;;5033080;28;20407;-82
2023/08/05 10:19:49;;;;;;;1999.90;999.90;;;22.30;99.90;;;;;;5032194;28;20052;-82
2023/08/05 10:22:22;;;;;;;1872.65;460.02;;;22.30;99.90;;;;;;5031549;28;20049;-82
2023/08/05 10:24:57;;;;;;;1550.15;332.38;;;22.30;99.90;;;;;;5031788;28;20045;-82
2023/08/05 10:27:56;;;;;;;1895.53;835.80;;;22.60;99.90;;;;;;5031704;28;20080;-82
2023/08/05 10:30:27;;;;;;;1999.90;999.90;;;22.90;99.90;;;;;;5009848;28;20053;-82
2023/08/05 10:32:58;;;;;;;1999.90;999.90;;;23.20;99.90;;;;;;5030929;28;20038;-82
2023/08/05 10:35:31;;;;;;;1999.90;999.90;;;23.30;99.90;;;;;;5031611;28;20033;-82
2023/08/05 10:38:09;;;;;;;1999.90;999.90;;;23.10;99.90;;;;;;5032631;28;20488;-81
2023/08/05 10:40:39;;;;;;;1999.90;999.90;;;22.90;99.90;;;;;;5031369;28;20056;-82
2023/08/05 10:43:05;;;;;;;1999.90;999.90;;;23.10;99.90;;;;;;5032400;28;20061;-82
2023/08/05 10:45:35;;;;;;;1999.90;999.90;;;23.00;99.90;;;;;;5031546;28;20400;-82
2023/08/05 10:48:06;;;;;;;1094.80;195.73;;;23.10;99.90;;;;;;5031838;28;20037;-82
2023/08/05 10:50:38;;;;;;;1574.28;758.13;;;23.20;99.90;;;;;;5014274;28;20079;-82
2023/08/05 10:53:12;;;;;;;1999.90;999.90;;;23.20;99.90;;;;;;5032451;28;20037;-82
2023/08/05 10:55:54;;;;;;;1999.90;999.90;;;22.80;99.90;;;;;;5032326;28;20447;-82
2023/08/05 10:58:27;;;;;;;1999.90;999.90;;;22.60;99.90;;;;;;5032474;28;20546;-82
2023/08/05 11:00:55;;;;;;;;;;;22.30;99.90;;;;;;5032226;28;20045;-82
2023/08/05 11:03:47;;;;;;;1999.90;999.90;;;22.50;99.90;;;;;;5031064;28;19971;-82
2023/08/05 11:06:15;;;;;;;1999.90;999.90;;;22.70;99.90;;;;;;5030753;28;20492;-82
2023/08/05 11:08:42;;;;;;;1999.90;737.92;;;22.70;99.90;;;;;;5030792;28;20037;-82
2023/08/05 11:11:15;;;;;;;1881.78;435.73;;;22.90;99.90;;;;;;5030886;28;20049;-82
2023/08/05 11:13:46;;;;;;;1875.35;821.92;;;23.00;99.90;;;;;;5030745;28;20046;-81
2023/08/05 11:16:16;;;;;;;1999.90;999.90;;;22.90;99.90;;;;;;5031714;28;20033;-81
2023/08/05 11:18:55;;;;;;;1999.90;999.90;;;23.10;99.90;;;;;;5030709;28;20134;-81
2023/08/05 11:21:21;;;;;;;1999.90;999.90;;;23.10;99.90;;;;;;5030584;28;20038;-81
2023/08/05 11:23:46;;;;;;;1999.90;999.90;;;23.20;99.90;;;;;;5031874;28;20037;-81
2023/08/05 11:26:12;;;;;;;1999.90;999.90;;;23.40;99.90;;;;;;5014252;28;20086;-81
2023/08/05 11:28:45;;;;;;;1999.90;999.90;;;23.30;99.90;;;;;;5031749;28;20391;-81
2023/08/05 11:31:24;;;;;;;1999.90;999.90;;;23.20;99.90;;;;;;5030112;28;20121;-81
2023/08/05 11:33:51;;;;;;;1999.90;999.90;;;23.10;99.90;;;;;;5031770;28;20109;-81
2023/08/05 11:36:21;;;;;;;1999.90;999.90;;;22.90;99.90;;;;;;5030521;28;20052;-81
2023/08/05 11:38:49;;;;;;;1999.90;999.90;;;23.00;99.90;;;;;;5031776;28;20411;-81
2023/08/05 11:41:16;;;;;;;1999.90;999.90;;;23.10;99.90;;;;;;5030332;28;20044;-81
2023/08/05 11:43:42;;;;;;;1999.90;999.90;;;23.10;99.90;;;;;;5031490;28;20124;-80
2023/08/05 11:46:22;;;;;;;1999.90;999.90;;;23.20;99.90;;;;;;5029740;28;20124;-80
2023/08/05 11:48:48;;;;;;;1999.90;999.90;;;23.20;99.90;;;;;;5030164;28;20511;-81
2023/08/05 11:51:13;;;;;;;1999.90;999.90;;;23.30;99.90;;;;;;5030393;28;20084;-81
2023/08/05 11:53:47;;;;;;;1759.07;803.85;;;23.00;99.90;;;;;;5031272;28;20053;-81
2023/08/05 11:56:22;;;;;;;1999.90;999.90;;;22.90;99.90;;;;;;5030320;28;20048;-81
2023/08/05 11:58:48;;;;;;;1999.90;999.90;;;22.90;99.90;;;;;;5030077;28;20045;-81
2023/08/05 12:01:13;;;;;;;1684.88;783.70;;;22.70;99.90;;;;;;5030586;28;20037;-81
2023/08/05 12:03:40;;;;;;;1999.90;592.13;;;22.70;99.90;;;;;;5034191;28;20045;-81
2023/08/05 12:06:06;;;;;;;1999.90;999.90;;;22.40;99.90;;;;;;5034055;28;20057;-81
2023/08/05 12:08:44;;;;;;;1243.05;261.38;;;22.30;99.90;;;;;;5033966;28;20124;-81
2023/08/05 12:11:12;;;;;;;1999.90;999.90;;;22.30;99.90;;;;;;5035510;28;20043;-81
2023/08/05 12:13:38;;;;;;;1999.90;999.90;;;22.30;99.90;;;;;;5033581;28;20037;-81
2023/08/05 12:16:16;;;;;;;1835.10;814.13;;;22.30;99.90;;;;;;5017579;28;20049;-83